Weather at Humberto Delgado Airport (Lisbon Portela Airport)

Public forecast

Using degrees Celsius for public forecast. Weather courtesy of forecast.io.

Current aviation weather report (METAR) for Humberto Delgado Airport (Lisbon Portela Airport)

Retrieved 2022/08/13 15:30 UTC (7 minutes ago):

LPPT 131530Z 30010KT 9999 FEW045 26/14 Q1013

Aviation forecast (TAF) for Humberto Delgado Airport (Lisbon Portela Airport)

Retrieved 2022/08/13 12:18 UTC (3 hours ago):

TAF LPPT 131100Z 1312/1418 VRB05KT 9999 FEW030 BECMG 1312/1315 31012KT BECMG 1321/1323 34007KT SCT012 BECMG 1407/1410 BKN030 BECMG 1411/1413 32012KT FEW035